Terminal Aerodrome Forecast
Issued by NWS

Home | Current Version | Previous Version | Text Only | Print | Product List | Glossary On
Versions: 1 2 3 4 5 6 7 8 9 10 11 12 13 14
000
FTUS42 TJSJ 210500 RRA
TAFJPS
TAF
TJPS 210544Z 2106/2206 VRB03KT P6SM FEW030 FEW060
     FM211500 15010KT P6SM FEW030
     FM211800 16010KT P6SM VCTS SCT025CB SCT050
     FM212330 05003KT P6SM FEW030 SCT060
      AMD NOT SKED 2112/2203=

USA.gov is the U.S. government's official web portal to all federal, state and local government web resources and services.